Terminal Aerodrome Forecast
Issued by NWS

Home | Current Version | Previous Version | Text Only | Print | Product List | Glossary On
Versions: 1 2 3 4 5 6 7 8 9 10 11 12 13 14 15
863
FTUS44 KTSA 262337
TAFXNA
TAF
KXNA 262337Z 2700/2724 31011KT P6SM VCSH BKN009
      TEMPO 2700/2702 3SM BR OVC008
     FM270200 29007KT P6SM BKN015
     FM270500 26004KT P6SM BKN025
     FM270900 VRB03KT P6SM FEW050
      TEMPO 2709/2713 2SM BR BKN007
     FM271800 16008KT P6SM BKN150=

USA.gov is the U.S. government's official web portal to all federal, state and local government web resources and services.